DXB weather

Dubai International Airport
Dubai, Dubai Emirate, United Arab Emirates

Public forecast

Using degrees Celsius for public forecast. Weather courtesy of forecast.io.

METAR (pilot weather report)

Retrieved 2018/06/22 22:00 UTC (5 minutes ago):

OMDB 222200Z 17008KT CAVOK 31/24 Q0999 NOSIG

TAF (pilot weather forecast)

Retrieved 2018/06/22 18:00 UTC (4 hours ago):

TAF OMDB 221651Z 2218/2400 26010KT 8000 NSC BECMG 2218/2220 19007KT PROB30 2301/2304 4000 HZ BECMG 2306/2308 28013KT BECMG 2317/2319 22005KT